sensor_id;sensor_type;location;lat;lon;timestamp;P1;durP1;ratioP1;P2;durP2;ratioP2
66559;SDS011;53413;49.878;8.142;2023-02-28T00:00:09;6.35;;;2.50;;
66559;SDS011;53413;49.878;8.142;2023-02-28T00:02:37;5.85;;;2.13;;
66559;SDS011;53413;49.878;8.142;2023-02-28T00:05:04;5.63;;;2.40;;
66559;SDS011;53413;49.878;8.142;2023-02-28T00:07:30;6.80;;;2.58;;
66559;SDS011;53413;49.878;8.142;2023-02-28T00:09:57;6.43;;;2.40;;
66559;SDS011;53413;49.878;8.142;2023-02-28T00:12:23;6.13;;;2.40;;
66559;SDS011;53413;49.878;8.142;2023-02-28T00:14:49;7.15;;;2.38;;
66559;SDS011;53413;49.878;8.142;2023-02-28T00:17:15;5.47;;;2.25;;
66559;SDS011;53413;49.878;8.142;2023-02-28T00:19:42;6.03;;;2.40;;
66559;SDS011;53413;49.878;8.142;2023-02-28T00:22:08;6.90;;;2.30;;
66559;SDS011;53413;49.878;8.142;2023-02-28T00:24:34;5.43;;;2.30;;
66559;SDS011;53413;49.878;8.142;2023-02-28T00:26:59;5.40;;;2.20;;
66559;SDS011;53413;49.878;8.142;2023-02-28T00:29:24;5.83;;;2.40;;
66559;SDS011;53413;49.878;8.142;2023-02-28T00:31:50;6.57;;;2.60;;
66559;SDS011;53413;49.878;8.142;2023-02-28T00:34:15;5.90;;;2.33;;
66559;SDS011;53413;49.878;8.142;2023-02-28T00:36:40;6.17;;;2.30;;
66559;SDS011;53413;49.878;8.142;2023-02-28T00:39:10;5.85;;;2.60;;
66559;SDS011;53413;49.878;8.142;2023-02-28T00:41:35;6.20;;;2.53;;
66559;SDS011;53413;49.878;8.142;2023-02-28T00:44:01;6.27;;;2.50;;
66559;SDS011;53413;49.878;8.142;2023-02-28T00:46:26;6.00;;;2.15;;
66559;SDS011;53413;49.878;8.142;2023-02-28T00:48:51;6.00;;;2.40;;
66559;SDS011;53413;49.878;8.142;2023-02-28T00:51:17;5.97;;;2.30;;
66559;SDS011;53413;49.878;8.142;2023-02-28T00:53:42;6.00;;;2.60;;
66559;SDS011;53413;49.878;8.142;2023-02-28T00:56:07;6.10;;;2.30;;
66559;SDS011;53413;49.878;8.142;2023-02-28T00:58:33;5.00;;;2.20;;
66559;SDS011;53413;49.878;8.142;2023-02-28T01:00:58;7.67;;;2.47;;
66559;SDS011;53413;49.878;8.142;2023-02-28T01:03:23;5.53;;;2.27;;
66559;SDS011;53413;49.878;8.142;2023-02-28T01:05:49;6.63;;;2.20;;
66559;SDS011;53413;49.878;8.142;2023-02-28T01:08:15;6.57;;;2.47;;
66559;SDS011;53413;49.878;8.142;2023-02-28T01:10:40;6.40;;;2.40;;
66559;SDS011;53413;49.878;8.142;2023-02-28T01:13:06;6.55;;;2.38;;
66559;SDS011;53413;49.878;8.142;2023-02-28T01:15:32;6.37;;;2.70;;
66559;SDS011;53413;49.878;8.142;2023-02-28T01:17:58;8.35;;;2.88;;
66559;SDS011;53413;49.878;8.142;2023-02-28T01:20:23;6.75;;;2.85;;
66559;SDS011;53413;49.878;8.142;2023-02-28T01:22:49;7.33;;;2.67;;
66559;SDS011;53413;49.878;8.142;2023-02-28T01:25:14;5.83;;;2.70;;
66559;SDS011;53413;49.878;8.142;2023-02-28T01:27:40;7.03;;;2.73;;
66559;SDS011;53413;49.878;8.142;2023-02-28T01:30:06;8.07;;;2.70;;
66559;SDS011;53413;49.878;8.142;2023-02-28T01:32:33;7.85;;;2.83;;
66559;SDS011;53413;49.878;8.142;2023-02-28T01:34:59;6.93;;;2.60;;
66559;SDS011;53413;49.878;8.142;2023-02-28T01:37:24;8.10;;;3.17;;
66559;SDS011;53413;49.878;8.142;2023-02-28T01:39:49;7.40;;;2.70;;
66559;SDS011;53413;49.878;8.142;2023-02-28T01:42:15;7.23;;;2.77;;
66559;SDS011;53413;49.878;8.142;2023-02-28T01:47:29;6.82;;;2.63;;
66559;SDS011;53413;49.878;8.142;2023-02-28T01:49:58;6.57;;;2.57;;
66559;SDS011;53413;49.878;8.142;2023-02-28T01:52:25;8.95;;;3.10;;
66559;SDS011;53413;49.878;8.142;2023-02-28T01:54:52;8.15;;;3.45;;
66559;SDS011;53413;49.878;8.142;2023-02-28T01:57:22;9.30;;;3.38;;
66559;SDS011;53413;49.878;8.142;2023-02-28T02:02:24;8.87;;;3.07;;
66559;SDS011;53413;49.878;8.142;2023-02-28T02:07:16;8.40;;;3.50;;
66559;SDS011;53413;49.878;8.142;2023-02-28T02:09:42;7.75;;;2.90;;
66559;SDS011;53413;49.878;8.142;2023-02-28T02:12:32;8.67;;;3.40;;
66559;SDS011;53413;49.878;8.142;2023-02-28T02:20:16;12.05;;;3.88;;
66559;SDS011;53413;49.878;8.142;2023-02-28T02:23:33;12.52;;;4.28;;
66559;SDS011;53413;49.878;8.142;2023-02-28T02:39:27;9.02;;;4.07;;
66559;SDS011;53413;49.878;8.142;2023-02-28T02:41:59;11.90;;;4.18;;
66559;SDS011;53413;49.878;8.142;2023-02-28T02:47:08;13.67;;;4.03;;
66559;SDS011;53413;49.878;8.142;2023-02-28T02:49:39;10.00;;;4.07;;
66559;SDS011;53413;49.878;8.142;2023-02-28T02:52:09;10.70;;;4.35;;
66559;SDS011;53413;49.878;8.142;2023-02-28T02:54:43;10.32;;;3.90;;
66559;SDS011;53413;49.878;8.142;2023-02-28T02:57:20;12.20;;;4.60;;
66559;SDS011;53413;49.878;8.142;2023-02-28T02:59:59;11.97;;;3.93;;
66559;SDS011;53413;49.878;8.142;2023-02-28T03:02:27;13.45;;;4.60;;
66559;SDS011;53413;49.878;8.142;2023-02-28T03:04:59;11.98;;;3.78;;
66559;SDS011;53413;49.878;8.142;2023-02-28T03:07:28;11.13;;;4.28;;
66559;SDS011;53413;49.878;8.142;2023-02-28T03:09:54;12.73;;;4.30;;
66559;SDS011;53413;49.878;8.142;2023-02-28T03:12:22;11.50;;;4.32;;
66559;SDS011;53413;49.878;8.142;2023-02-28T03:14:55;12.80;;;4.23;;
66559;SDS011;53413;49.878;8.142;2023-02-28T03:20:17;10.75;;;4.40;;
66559;SDS011;53413;49.878;8.142;2023-02-28T03:25:52;12.90;;;4.25;;
66559;SDS011;53413;49.878;8.142;2023-02-28T03:28:30;13.10;;;4.70;;
66559;SDS011;53413;49.878;8.142;2023-02-28T03:31:35;11.77;;;4.30;;
66559;SDS011;53413;49.878;8.142;2023-02-28T03:36:27;12.30;;;4.97;;
66559;SDS011;53413;49.878;8.142;2023-02-28T03:38:58;14.35;;;4.85;;
66559;SDS011;53413;49.878;8.142;2023-02-28T03:41:37;11.03;;;4.63;;
66559;SDS011;53413;49.878;8.142;2023-02-28T03:44:09;13.10;;;4.80;;
66559;SDS011;53413;49.878;8.142;2023-02-28T03:46:44;11.77;;;4.65;;
66559;SDS011;53413;49.878;8.142;2023-02-28T03:49:17;12.05;;;4.20;;
66559;SDS011;53413;49.878;8.142;2023-02-28T03:51:48;11.38;;;4.70;;
66559;SDS011;53413;49.878;8.142;2023-02-28T03:54:22;11.57;;;4.20;;
66559;SDS011;53413;49.878;8.142;2023-02-28T03:56:56;13.43;;;4.95;;
66559;SDS011;53413;49.878;8.142;2023-02-28T03:59:32;14.35;;;4.90;;
66559;SDS011;53413;49.878;8.142;2023-02-28T04:01:59;13.32;;;4.90;;
66559;SDS011;53413;49.878;8.142;2023-02-28T04:04:24;13.20;;;4.60;;
66559;SDS011;53413;49.878;8.142;2023-02-28T04:06:51;11.85;;;4.70;;
66559;SDS011;53413;49.878;8.142;2023-02-28T04:09:17;12.67;;;5.00;;
66559;SDS011;53413;49.878;8.142;2023-02-28T04:11:46;11.80;;;4.78;;
66559;SDS011;53413;49.878;8.142;2023-02-28T04:14:16;12.30;;;4.40;;
66559;SDS011;53413;49.878;8.142;2023-02-28T04:16:42;11.60;;;4.60;;
66559;SDS011;53413;49.878;8.142;2023-02-28T04:19:08;13.13;;;4.38;;
66559;SDS011;53413;49.878;8.142;2023-02-28T04:21:36;11.27;;;3.90;;
66559;SDS011;53413;49.878;8.142;2023-02-28T04:24:07;10.32;;;4.18;;
66559;SDS011;53413;49.878;8.142;2023-02-28T04:26:38;10.95;;;4.03;;
66559;SDS011;53413;49.878;8.142;2023-02-28T04:29:05;12.05;;;4.60;;
66559;SDS011;53413;49.878;8.142;2023-02-28T04:31:32;11.65;;;4.13;;
66559;SDS011;53413;49.878;8.142;2023-02-28T04:33:57;9.87;;;4.03;;
66559;SDS011;53413;49.878;8.142;2023-02-28T04:36:22;10.40;;;4.20;;
66559;SDS011;53413;49.878;8.142;2023-02-28T04:38:48;11.87;;;4.47;;
66559;SDS011;53413;49.878;8.142;2023-02-28T04:41:14;12.00;;;4.45;;
66559;SDS011;53413;49.878;8.142;2023-02-28T04:43:40;11.25;;;4.63;;
66559;SDS011;53413;49.878;8.142;2023-02-28T04:46:06;10.47;;;3.57;;
66559;SDS011;53413;49.878;8.142;2023-02-28T04:48:33;11.07;;;4.13;;
66559;SDS011;53413;49.878;8.142;2023-02-28T04:51:01;11.45;;;4.63;;
66559;SDS011;53413;49.878;8.142;2023-02-28T04:53:28;12.18;;;4.78;;
66559;SDS011;53413;49.878;8.142;2023-02-28T04:55:54;11.10;;;4.32;;
66559;SDS011;53413;49.878;8.142;2023-02-28T04:58:20;9.20;;;3.30;;
66559;SDS011;53413;49.878;8.142;2023-02-28T05:00:48;11.13;;;4.70;;
66559;SDS011;53413;49.878;8.142;2023-02-28T05:03:13;11.20;;;4.53;;
66559;SDS011;53413;49.878;8.142;2023-02-28T05:05:38;10.23;;;4.00;;
66559;SDS011;53413;49.878;8.142;2023-02-28T05:08:04;9.87;;;4.40;;
66559;SDS011;53413;49.878;8.142;2023-02-28T05:10:30;11.70;;;4.80;;
66559;SDS011;53413;49.878;8.142;2023-02-28T05:12:56;9.75;;;4.28;;
66559;SDS011;53413;49.878;8.142;2023-02-28T05:15:21;9.88;;;4.07;;
66559;SDS011;53413;49.878;8.142;2023-02-28T05:17:46;9.83;;;3.67;;
66559;SDS011;53413;49.878;8.142;2023-02-28T05:20:12;10.23;;;4.03;;
66559;SDS011;53413;49.878;8.142;2023-02-28T05:22:39;10.73;;;4.28;;
66559;SDS011;53413;49.878;8.142;2023-02-28T05:25:05;9.57;;;3.42;;
66559;SDS011;53413;49.878;8.142;2023-02-28T05:27:30;10.37;;;3.80;;
66559;SDS011;53413;49.878;8.142;2023-02-28T05:29:56;10.15;;;3.88;;
66559;SDS011;53413;49.878;8.142;2023-02-28T05:32:22;9.93;;;3.40;;
66559;SDS011;53413;49.878;8.142;2023-02-28T05:34:48;10.48;;;4.10;;
66559;SDS011;53413;49.878;8.142;2023-02-28T05:37:14;11.27;;;3.90;;
66559;SDS011;53413;49.878;8.142;2023-02-28T05:39:40;9.32;;;3.75;;
66559;SDS011;53413;49.878;8.142;2023-02-28T05:42:06;9.83;;;3.23;;
66559;SDS011;53413;49.878;8.142;2023-02-28T05:44:32;9.38;;;3.90;;
66559;SDS011;53413;49.878;8.142;2023-02-28T05:46:58;9.88;;;3.53;;
66559;SDS011;53413;49.878;8.142;2023-02-28T05:49:24;9.32;;;3.92;;
66559;SDS011;53413;49.878;8.142;2023-02-28T05:51:49;9.47;;;3.70;;
66559;SDS011;53413;49.878;8.142;2023-02-28T05:54:15;9.63;;;3.67;;
66559;SDS011;53413;49.878;8.142;2023-02-28T05:56:40;9.37;;;4.07;;
66559;SDS011;53413;49.878;8.142;2023-02-28T05:59:09;9.27;;;3.75;;
66559;SDS011;53413;49.878;8.142;2023-02-28T06:01:44;11.13;;;3.90;;
66559;SDS011;53413;49.878;8.142;2023-02-28T06:04:13;11.00;;;4.13;;
66559;SDS011;53413;49.878;8.142;2023-02-28T06:06:43;10.17;;;4.03;;
66559;SDS011;53413;49.878;8.142;2023-02-28T06:09:09;10.55;;;4.07;;
66559;SDS011;53413;49.878;8.142;2023-02-28T06:11:35;9.93;;;3.90;;
66559;SDS011;53413;49.878;8.142;2023-02-28T06:14:00;12.30;;;4.07;;
66559;SDS011;53413;49.878;8.142;2023-02-28T06:16:26;11.67;;;4.00;;
66559;SDS011;53413;49.878;8.142;2023-02-28T06:18:52;9.10;;;3.50;;
66559;SDS011;53413;49.878;8.142;2023-02-28T06:21:20;11.25;;;4.13;;
66559;SDS011;53413;49.878;8.142;2023-02-28T06:23:46;10.30;;;3.60;;
66559;SDS011;53413;49.878;8.142;2023-02-28T06:26:11;12.13;;;3.87;;
66559;SDS011;53413;49.878;8.142;2023-02-28T06:28:37;9.33;;;3.53;;
66559;SDS011;53413;49.878;8.142;2023-02-28T06:31:09;9.43;;;3.67;;
66559;SDS011;53413;49.878;8.142;2023-02-28T06:33:36;8.68;;;3.15;;
66559;SDS011;53413;49.878;8.142;2023-02-28T06:36:03;10.40;;;3.72;;
66559;SDS011;53413;49.878;8.142;2023-02-28T06:38:30;10.02;;;3.60;;
66559;SDS011;53413;49.878;8.142;2023-02-28T06:40:56;8.50;;;3.40;;
66559;SDS011;53413;49.878;8.142;2023-02-28T06:43:22;10.60;;;3.72;;
66559;SDS011;53413;49.878;8.142;2023-02-28T06:45:49;9.68;;;3.47;;
66559;SDS011;53413;49.878;8.142;2023-02-28T06:48:14;10.63;;;3.90;;
66559;SDS011;53413;49.878;8.142;2023-02-28T06:50:40;10.97;;;3.73;;
66559;SDS011;53413;49.878;8.142;2023-02-28T06:53:05;11.52;;;3.90;;
66559;SDS011;53413;49.878;8.142;2023-02-28T06:55:31;10.80;;;3.93;;
66559;SDS011;53413;49.878;8.142;2023-02-28T06:57:56;9.37;;;3.70;;
66559;SDS011;53413;49.878;8.142;2023-02-28T07:00:22;9.30;;;2.80;;
66559;SDS011;53413;49.878;8.142;2023-02-28T07:02:48;10.63;;;3.47;;
66559;SDS011;53413;49.878;8.142;2023-02-28T07:05:13;9.00;;;3.30;;
66559;SDS011;53413;49.878;8.142;2023-02-28T07:07:39;9.37;;;3.43;;
66559;SDS011;53413;49.878;8.142;2023-02-28T07:10:08;10.75;;;3.80;;
66559;SDS011;53413;49.878;8.142;2023-02-28T07:12:36;9.27;;;3.70;;
66559;SDS011;53413;49.878;8.142;2023-02-28T07:15:01;8.07;;;3.50;;
66559;SDS011;53413;49.878;8.142;2023-02-28T07:17:28;9.43;;;3.53;;
66559;SDS011;53413;49.878;8.142;2023-02-28T07:19:53;10.63;;;3.60;;
66559;SDS011;53413;49.878;8.142;2023-02-28T07:22:18;8.37;;;3.50;;
66559;SDS011;53413;49.878;8.142;2023-02-28T07:24:44;7.47;;;3.17;;
66559;SDS011;53413;49.878;8.142;2023-02-28T07:27:09;9.23;;;3.60;;
66559;SDS011;53413;49.878;8.142;2023-02-28T07:29:34;9.88;;;3.75;;
66559;SDS011;53413;49.878;8.142;2023-02-28T07:32:00;8.13;;;3.47;;
66559;SDS011;53413;49.878;8.142;2023-02-28T07:34:25;8.73;;;3.60;;
66559;SDS011;53413;49.878;8.142;2023-02-28T07:36:52;7.93;;;3.60;;
66559;SDS011;53413;49.878;8.142;2023-02-28T07:39:19;7.85;;;3.55;;
66559;SDS011;53413;49.878;8.142;2023-02-28T07:41:45;8.18;;;3.47;;
66559;SDS011;53413;49.878;8.142;2023-02-28T07:44:10;8.27;;;3.50;;
66559;SDS011;53413;49.878;8.142;2023-02-28T07:46:36;6.80;;;2.90;;
66559;SDS011;53413;49.878;8.142;2023-02-28T07:49:02;6.85;;;3.67;;
66559;SDS011;53413;49.878;8.142;2023-02-28T07:51:30;8.87;;;3.40;;
66559;SDS011;53413;49.878;8.142;2023-02-28T07:53:56;8.25;;;3.40;;
66559;SDS011;53413;49.878;8.142;2023-02-28T07:56:22;7.23;;;3.80;;
66559;SDS011;53413;49.878;8.142;2023-02-28T07:58:47;7.13;;;3.78;;
66559;SDS011;53413;49.878;8.142;2023-02-28T08:01:13;6.13;;;3.30;;
66559;SDS011;53413;49.878;8.142;2023-02-28T08:03:38;7.57;;;3.43;;
66559;SDS011;53413;49.878;8.142;2023-02-28T08:06:05;7.25;;;3.70;;
66559;SDS011;53413;49.878;8.142;2023-02-28T08:08:39;7.43;;;3.80;;
66559;SDS011;53413;49.878;8.142;2023-02-28T08:11:05;7.70;;;3.60;;
66559;SDS011;53413;49.878;8.142;2023-02-28T08:13:30;6.90;;;3.87;;
66559;SDS011;53413;49.878;8.142;2023-02-28T08:15:56;7.03;;;3.53;;
66559;SDS011;53413;49.878;8.142;2023-02-28T08:18:21;7.32;;;3.17;;
66559;SDS011;53413;49.878;8.142;2023-02-28T08:20:48;6.27;;;3.50;;
66559;SDS011;53413;49.878;8.142;2023-02-28T08:23:13;6.85;;;3.15;;
66559;SDS011;53413;49.878;8.142;2023-02-28T08:25:39;6.90;;;3.40;;
66559;SDS011;53413;49.878;8.142;2023-02-28T08:28:04;7.75;;;3.42;;
66559;SDS011;53413;49.878;8.142;2023-02-28T08:30:30;7.83;;;3.70;;
66559;SDS011;53413;49.878;8.142;2023-02-28T08:32:55;7.80;;;3.60;;
66559;SDS011;53413;49.878;8.142;2023-02-28T08:35:21;6.77;;;3.07;;
66559;SDS011;53413;49.878;8.142;2023-02-28T08:37:47;6.50;;;3.17;;
66559;SDS011;53413;49.878;8.142;2023-02-28T08:40:13;6.82;;;3.33;;
66559;SDS011;53413;49.878;8.142;2023-02-28T08:42:43;7.95;;;3.67;;
66559;SDS011;53413;49.878;8.142;2023-02-28T08:45:11;10.03;;;3.60;;
66559;SDS011;53413;49.878;8.142;2023-02-28T08:47:38;8.75;;;3.67;;
66559;SDS011;53413;49.878;8.142;2023-02-28T08:50:03;8.40;;;3.20;;
66559;SDS011;53413;49.878;8.142;2023-02-28T08:52:29;7.47;;;3.50;;
66559;SDS011;53413;49.878;8.142;2023-02-28T08:54:55;7.77;;;3.60;;
66559;SDS011;53413;49.878;8.142;2023-02-28T08:57:20;7.63;;;3.43;;
66559;SDS011;53413;49.878;8.142;2023-02-28T08:59:45;9.05;;;3.70;;
66559;SDS011;53413;49.878;8.142;2023-02-28T09:02:12;7.73;;;3.37;;
66559;SDS011;53413;49.878;8.142;2023-02-28T09:04:39;7.63;;;3.50;;
66559;SDS011;53413;49.878;8.142;2023-02-28T09:07:04;6.78;;;3.45;;
66559;SDS011;53413;49.878;8.142;2023-02-28T09:09:29;8.37;;;3.87;;
66559;SDS011;53413;49.878;8.142;2023-02-28T09:11:55;7.80;;;3.20;;
66559;SDS011;53413;49.878;8.142;2023-02-28T09:14:21;8.48;;;3.65;;
66559;SDS011;53413;49.878;8.142;2023-02-28T09:16:46;6.97;;;3.40;;
66559;SDS011;53413;49.878;8.142;2023-02-28T09:19:12;7.90;;;3.83;;
66559;SDS011;53413;49.878;8.142;2023-02-28T09:21:37;6.53;;;3.20;;
66559;SDS011;53413;49.878;8.142;2023-02-28T09:24:03;7.40;;;3.70;;
66559;SDS011;53413;49.878;8.142;2023-02-28T09:26:28;6.72;;;3.25;;
66559;SDS011;53413;49.878;8.142;2023-02-28T09:28:54;7.60;;;3.53;;
66559;SDS011;53413;49.878;8.142;2023-02-28T09:31:21;8.40;;;3.60;;
66559;SDS011;53413;49.878;8.142;2023-02-28T09:33:50;9.10;;;3.90;;
66559;SDS011;53413;49.878;8.142;2023-02-28T09:36:17;7.18;;;4.00;;
66559;SDS011;53413;49.878;8.142;2023-02-28T09:38:43;7.18;;;3.70;;
66559;SDS011;53413;49.878;8.142;2023-02-28T09:41:14;6.90;;;3.70;;
66559;SDS011;53413;49.878;8.142;2023-02-28T09:43:44;6.07;;;3.83;;
66559;SDS011;53413;49.878;8.142;2023-02-28T09:46:55;8.25;;;4.03;;
66559;SDS011;53413;49.878;8.142;2023-02-28T09:49:16;6.45;;;3.97;;
66559;SDS011;53413;49.878;8.142;2023-02-28T09:54:23;6.90;;;3.70;;
66559;SDS011;53413;49.878;8.142;2023-02-28T10:04:39;7.70;;;4.40;;
66559;SDS011;53413;49.878;8.142;2023-02-28T10:07:21;6.57;;;3.95;;
66559;SDS011;53413;49.878;8.142;2023-02-28T10:10:17;6.23;;;3.50;;
66559;SDS011;53413;49.878;8.142;2023-02-28T10:12:47;8.10;;;4.10;;
66559;SDS011;53413;49.878;8.142;2023-02-28T10:15:17;7.80;;;4.13;;
66559;SDS011;53413;49.878;8.142;2023-02-28T10:17:44;8.82;;;3.72;;
66559;SDS011;53413;49.878;8.142;2023-02-28T10:20:15;7.50;;;3.65;;
66559;SDS011;53413;49.878;8.142;2023-02-28T10:25:19;6.82;;;3.60;;
66559;SDS011;53413;49.878;8.142;2023-02-28T10:27:49;6.80;;;3.30;;
66559;SDS011;53413;49.878;8.142;2023-02-28T10:30:18;7.00;;;3.53;;
66559;SDS011;53413;49.878;8.142;2023-02-28T10:32:47;7.47;;;3.90;;
66559;SDS011;53413;49.878;8.142;2023-02-28T10:35:20;7.45;;;3.58;;
66559;SDS011;53413;49.878;8.142;2023-02-28T10:37:54;8.57;;;3.90;;
66559;SDS011;53413;49.878;8.142;2023-02-28T10:43:02;7.63;;;3.50;;
66559;SDS011;53413;49.878;8.142;2023-02-28T10:45:59;8.70;;;4.07;;
66559;SDS011;53413;49.878;8.142;2023-02-28T10:48:36;7.90;;;3.70;;
66559;SDS011;53413;49.878;8.142;2023-02-28T10:51:08;8.80;;;3.47;;
66559;SDS011;53413;49.878;8.142;2023-02-28T10:56:16;8.23;;;3.65;;
66559;SDS011;53413;49.878;8.142;2023-02-28T11:06:44;7.75;;;3.42;;
66559;SDS011;53413;49.878;8.142;2023-02-28T11:11:49;9.07;;;3.72;;
66559;SDS011;53413;49.878;8.142;2023-02-28T11:14:19;8.33;;;3.53;;
66559;SDS011;53413;49.878;8.142;2023-02-28T11:16:47;8.68;;;3.65;;
66559;SDS011;53413;49.878;8.142;2023-02-28T11:19:20;9.02;;;3.78;;
66559;SDS011;53413;49.878;8.142;2023-02-28T11:21:52;8.73;;;3.83;;
66559;SDS011;53413;49.878;8.142;2023-02-28T11:24:23;10.13;;;3.97;;
66559;SDS011;53413;49.878;8.142;2023-02-28T11:26:52;8.23;;;3.60;;
66559;SDS011;53413;49.878;8.142;2023-02-28T11:34:29;8.25;;;3.35;;
66559;SDS011;53413;49.878;8.142;2023-02-28T11:36:56;9.55;;;4.20;;
66559;SDS011;53413;49.878;8.142;2023-02-28T11:39:24;9.80;;;4.80;;
66559;SDS011;53413;49.878;8.142;2023-02-28T11:50:09;8.63;;;3.75;;
66559;SDS011;53413;49.878;8.142;2023-02-28T11:55:23;8.93;;;4.10;;
66559;SDS011;53413;49.878;8.142;2023-02-28T12:00:55;9.48;;;3.90;;
66559;SDS011;53413;49.878;8.142;2023-02-28T12:03:48;8.57;;;4.18;;
66559;SDS011;53413;49.878;8.142;2023-02-28T12:06:25;9.75;;;4.25;;
66559;SDS011;53413;49.878;8.142;2023-02-28T12:09:04;9.47;;;4.20;;
66559;SDS011;53413;49.878;8.142;2023-02-28T12:11:53;7.45;;;3.60;;
66559;SDS011;53413;49.878;8.142;2023-02-28T12:23:46;7.57;;;3.50;;
66559;SDS011;53413;49.878;8.142;2023-02-28T12:28:43;8.57;;;3.88;;
66559;SDS011;53413;49.878;8.142;2023-02-28T12:31:16;8.23;;;3.92;;
66559;SDS011;53413;49.878;8.142;2023-02-28T12:33:46;8.50;;;3.55;;
66559;SDS011;53413;49.878;8.142;2023-02-28T12:36:16;8.17;;;3.23;;
66559;SDS011;53413;49.878;8.142;2023-02-28T12:44:11;9.10;;;4.07;;
66559;SDS011;53413;49.878;8.142;2023-02-28T12:46:48;8.43;;;3.85;;
66559;SDS011;53413;49.878;8.142;2023-02-28T12:49:17;9.10;;;4.20;;
66559;SDS011;53413;49.878;8.142;2023-02-28T12:51:47;9.38;;;4.00;;
66559;SDS011;53413;49.878;8.142;2023-02-28T12:59:52;8.93;;;4.40;;
66559;SDS011;53413;49.878;8.142;2023-02-28T13:10:49;8.45;;;4.10;;
66559;SDS011;53413;49.878;8.142;2023-02-28T13:13:23;8.10;;;4.10;;
66559;SDS011;53413;49.878;8.142;2023-02-28T13:15:57;8.10;;;3.40;;
66559;SDS011;53413;49.878;8.142;2023-02-28T13:18:35;9.20;;;3.97;;
66559;SDS011;53413;49.878;8.142;2023-02-28T13:21:04;9.60;;;4.45;;
66559;SDS011;53413;49.878;8.142;2023-02-28T13:26:11;8.65;;;3.88;;
66559;SDS011;53413;49.878;8.142;2023-02-28T13:28:57;9.10;;;4.13;;
66559;SDS011;53413;49.878;8.142;2023-02-28T13:31:25;9.63;;;4.35;;
66559;SDS011;53413;49.878;8.142;2023-02-28T13:38:51;9.50;;;4.50;;
66559;SDS011;53413;49.878;8.142;2023-02-28T13:46:33;9.00;;;3.95;;
66559;SDS011;53413;49.878;8.142;2023-02-28T14:02:57;9.15;;;4.47;;
66559;SDS011;53413;49.878;8.142;2023-02-28T14:05:34;9.52;;;4.13;;
66559;SDS011;53413;49.878;8.142;2023-02-28T14:10:35;11.30;;;4.80;;
66559;SDS011;53413;49.878;8.142;2023-02-28T14:20:43;11.50;;;5.20;;
66559;SDS011;53413;49.878;8.142;2023-02-28T14:31:36;10.85;;;4.72;;
66559;SDS011;53413;49.878;8.142;2023-02-28T14:36:58;9.87;;;4.37;;
66559;SDS011;53413;49.878;8.142;2023-02-28T14:39:27;12.48;;;5.00;;
66559;SDS011;53413;49.878;8.142;2023-02-28T14:41:55;11.15;;;4.60;;
66559;SDS011;53413;49.878;8.142;2023-02-28T14:44:24;10.15;;;4.90;;
66559;SDS011;53413;49.878;8.142;2023-02-28T14:46:52;10.00;;;4.68;;
66559;SDS011;53413;49.878;8.142;2023-02-28T14:49:21;11.47;;;4.90;;
66559;SDS011;53413;49.878;8.142;2023-02-28T14:52:11;11.05;;;4.85;;
66559;SDS011;53413;49.878;8.142;2023-02-28T14:54:40;10.02;;;4.18;;
66559;SDS011;53413;49.878;8.142;2023-02-28T14:57:06;10.98;;;4.70;;
66559;SDS011;53413;49.878;8.142;2023-02-28T15:02:35;11.17;;;4.80;;
66559;SDS011;53413;49.878;8.142;2023-02-28T15:07:42;12.18;;;4.93;;
66559;SDS011;53413;49.878;8.142;2023-02-28T15:10:18;10.93;;;4.75;;
66559;SDS011;53413;49.878;8.142;2023-02-28T15:15:35;11.37;;;4.73;;
66559;SDS011;53413;49.878;8.142;2023-02-28T15:18:07;11.07;;;4.45;;
66559;SDS011;53413;49.878;8.142;2023-02-28T15:20:39;11.88;;;5.05;;
66559;SDS011;53413;49.878;8.142;2023-02-28T15:23:07;12.13;;;4.65;;
66559;SDS011;53413;49.878;8.142;2023-02-28T15:25:33;10.68;;;4.90;;
66559;SDS011;53413;49.878;8.142;2023-02-28T15:27:59;12.03;;;4.80;;
66559;SDS011;53413;49.878;8.142;2023-02-28T15:30:26;11.70;;;4.73;;
66559;SDS011;53413;49.878;8.142;2023-02-28T15:35:42;9.05;;;3.58;;
66559;SDS011;53413;49.878;8.142;2023-02-28T15:38:21;10.27;;;4.45;;
66559;SDS011;53413;49.878;8.142;2023-02-28T15:40:55;12.75;;;5.30;;
66559;SDS011;53413;49.878;8.142;2023-02-28T15:46:04;11.73;;;4.47;;
66559;SDS011;53413;49.878;8.142;2023-02-28T15:48:36;11.38;;;5.00;;
66559;SDS011;53413;49.878;8.142;2023-02-28T15:53:50;12.18;;;4.38;;
66559;SDS011;53413;49.878;8.142;2023-02-28T15:56:33;11.23;;;4.70;;
66559;SDS011;53413;49.878;8.142;2023-02-28T15:59:04;10.30;;;4.40;;
66559;SDS011;53413;49.878;8.142;2023-02-28T16:01:35;10.52;;;4.55;;
66559;SDS011;53413;49.878;8.142;2023-02-28T16:04:06;12.40;;;4.85;;
66559;SDS011;53413;49.878;8.142;2023-02-28T16:09:08;10.20;;;4.40;;
66559;SDS011;53413;49.878;8.142;2023-02-28T16:11:37;10.90;;;4.70;;
66559;SDS011;53413;49.878;8.142;2023-02-28T16:14:06;12.13;;;4.78;;
66559;SDS011;53413;49.878;8.142;2023-02-28T16:16:33;11.95;;;4.93;;
66559;SDS011;53413;49.878;8.142;2023-02-28T16:18:59;10.65;;;4.60;;
66559;SDS011;53413;49.878;8.142;2023-02-28T16:21:25;10.07;;;4.60;;
66559;SDS011;53413;49.878;8.142;2023-02-28T16:23:51;13.17;;;4.93;;
66559;SDS011;53413;49.878;8.142;2023-02-28T16:26:21;11.60;;;5.10;;
66559;SDS011;53413;49.878;8.142;2023-02-28T16:28:48;11.93;;;5.13;;
66559;SDS011;53413;49.878;8.142;2023-02-28T16:31:13;11.50;;;4.72;;
66559;SDS011;53413;49.878;8.142;2023-02-28T16:33:41;10.35;;;4.53;;
66559;SDS011;53413;49.878;8.142;2023-02-28T16:36:10;10.67;;;4.47;;
66559;SDS011;53413;49.878;8.142;2023-02-28T16:38:39;9.85;;;4.20;;
66559;SDS011;53413;49.878;8.142;2023-02-28T16:41:04;11.03;;;4.87;;
66559;SDS011;53413;49.878;8.142;2023-02-28T16:43:30;9.93;;;4.90;;
66559;SDS011;53413;49.878;8.142;2023-02-28T16:45:55;11.87;;;5.03;;
66559;SDS011;53413;49.878;8.142;2023-02-28T16:48:23;11.38;;;5.10;;
66559;SDS011;53413;49.878;8.142;2023-02-28T16:50:50;12.25;;;5.20;;
66559;SDS011;53413;49.878;8.142;2023-02-28T16:53:16;11.23;;;5.03;;
66559;SDS011;53413;49.878;8.142;2023-02-28T16:55:41;10.60;;;4.53;;
66559;SDS011;53413;49.878;8.142;2023-02-28T16:58:06;12.57;;;4.63;;
66559;SDS011;53413;49.878;8.142;2023-02-28T17:00:36;10.60;;;4.43;;
66559;SDS011;53413;49.878;8.142;2023-02-28T17:03:02;10.93;;;4.27;;
66559;SDS011;53413;49.878;8.142;2023-02-28T17:05:27;11.33;;;4.20;;
66559;SDS011;53413;49.878;8.142;2023-02-28T17:08:01;11.30;;;5.03;;
66559;SDS011;53413;49.878;8.142;2023-02-28T17:10:28;11.07;;;4.93;;
66559;SDS011;53413;49.878;8.142;2023-02-28T17:12:54;11.95;;;5.00;;
66559;SDS011;53413;49.878;8.142;2023-02-28T17:15:20;11.83;;;4.50;;
66559;SDS011;53413;49.878;8.142;2023-02-28T17:17:45;11.38;;;4.30;;
66559;SDS011;53413;49.878;8.142;2023-02-28T17:20:18;13.13;;;5.32;;
66559;SDS011;53413;49.878;8.142;2023-02-28T17:22:51;11.47;;;4.70;;
66559;SDS011;53413;49.878;8.142;2023-02-28T17:25:17;11.38;;;4.63;;
66559;SDS011;53413;49.878;8.142;2023-02-28T17:27:43;10.95;;;4.35;;
66559;SDS011;53413;49.878;8.142;2023-02-28T17:30:19;11.47;;;5.10;;
66559;SDS011;53413;49.878;8.142;2023-02-28T17:32:48;13.77;;;5.15;;
66559;SDS011;53413;49.878;8.142;2023-02-28T17:35:14;11.98;;;5.05;;
66559;SDS011;53413;49.878;8.142;2023-02-28T17:37:40;11.70;;;5.05;;
66559;SDS011;53413;49.878;8.142;2023-02-28T17:40:06;13.65;;;5.20;;
66559;SDS011;53413;49.878;8.142;2023-02-28T17:42:37;12.20;;;4.88;;
66559;SDS011;53413;49.878;8.142;2023-02-28T17:45:03;11.33;;;4.90;;
66559;SDS011;53413;49.878;8.142;2023-02-28T17:47:28;13.83;;;5.20;;
66559;SDS011;53413;49.878;8.142;2023-02-28T17:49:53;11.43;;;5.17;;
66559;SDS011;53413;49.878;8.142;2023-02-28T17:52:19;11.97;;;5.20;;
66559;SDS011;53413;49.878;8.142;2023-02-28T17:54:44;12.70;;;5.70;;